createdAt,value
2018-10-09T00:00:50.256Z,101269.04
2018-10-09T00:03:20.407Z,101268.21
2018-10-09T00:05:50.361Z,101263.28
2018-10-09T00:08:20.316Z,101264.95
2018-10-09T00:10:53.306Z,101261.16
2018-10-09T00:13:25.010Z,101262.02
2018-10-09T00:15:57.842Z,101261.77
2018-10-09T00:18:29.884Z,101262.31
2018-10-09T00:21:00.793Z,101258.52
2018-10-09T00:23:30.744Z,101246.94
2018-10-09T00:26:03.724Z,101248.06
2018-10-09T00:28:33.713Z,101237.39
2018-10-09T00:31:08.230Z,101236.87
2018-10-09T00:33:38.690Z,101239.38
2018-10-09T00:36:08.806Z,101226.50
2018-10-09T00:38:38.734Z,101227.63
2018-10-09T00:41:12.954Z,101224.37
2018-10-09T00:43:45.491Z,101227.98
2018-10-09T00:46:18.194Z,101220.58
2018-10-09T00:48:49.815Z,101217.06
2018-10-09T00:51:22.733Z,101211.64
2018-10-09T00:53:54.252Z,101214.94
2018-10-09T00:56:25.723Z,101220.79
2018-10-09T00:58:57.174Z,101214.53
2018-10-09T01:01:27.218Z,101216.78
2018-10-09T01:03:57.150Z,101217.64
2018-10-09T01:06:27.107Z,101221.00
2018-10-09T01:08:57.804Z,101224.36
2018-10-09T01:11:29.453Z,101224.72
2018-10-09T01:13:59.389Z,101224.22
2018-10-09T01:16:34.887Z,101225.08
2018-10-09T01:19:04.788Z,101222.37
2018-10-09T01:21:35.813Z,101226.55
2018-10-09T01:24:05.751Z,101224.67
2018-10-09T01:26:35.699Z,101221.67
2018-10-09T01:29:05.672Z,101217.05
2018-10-09T01:31:35.588Z,101215.70
2018-10-09T01:34:05.530Z,101217.39
2018-10-09T01:36:35.476Z,101219.89
2018-10-09T01:39:07.686Z,101223.50
2018-10-09T01:41:39.000Z,101225.99
2018-10-09T01:44:10.865Z,101224.11
2018-10-09T01:46:44.829Z,101223.85
2018-10-09T01:49:16.821Z,101226.09
2018-10-09T01:51:56.255Z,101218.14
2018-10-09T01:54:28.840Z,101228.61
2018-10-09T01:57:02.335Z,101225.03
2018-10-09T01:59:35.786Z,101225.90
2018-10-09T02:02:09.315Z,101230.34
2018-10-09T02:04:39.262Z,101235.83
2018-10-09T02:07:10.102Z,101243.30
2018-10-09T02:09:39.999Z,101243.05
2018-10-09T02:12:10.827Z,101249.66
2018-10-09T02:14:42.227Z,101245.82
2018-10-09T02:17:13.078Z,101249.69
2018-10-09T02:19:43.919Z,101258.78
2018-10-09T02:22:13.737Z,101256.36
2018-10-09T02:24:43.690Z,101253.64
2018-10-09T02:27:16.445Z,101249.27
2018-10-09T02:29:48.992Z,101241.63
2018-10-09T02:32:21.766Z,101240.86
2018-10-09T02:34:54.273Z,101250.22
2018-10-09T02:37:26.036Z,101239.27
2018-10-09T02:39:58.615Z,101236.00
2018-10-09T02:42:31.020Z,101235.23
2018-10-09T02:45:02.846Z,101243.78
2018-10-09T02:47:36.414Z,101238.07
2018-10-09T02:50:09.778Z,101231.53
2018-10-09T02:52:41.920Z,101230.18
2018-10-09T02:55:20.245Z,101233.50
2018-10-09T02:57:53.911Z,101226.98
2018-10-09T03:00:28.655Z,101222.61
2018-10-09T03:03:04.912Z,101223.21
2018-10-09T03:05:37.491Z,101221.07
2018-10-09T03:08:09.283Z,101219.19
2018-10-09T03:10:40.108Z,101212.03
2018-10-09T03:13:13.955Z,101202.48
2018-10-09T03:15:47.184Z,101205.52
2018-10-09T03:18:18.461Z,101196.52
2018-10-09T03:20:48.976Z,101202.00
2018-10-09T03:23:19.111Z,101200.12
2018-10-09T03:25:50.548Z,101196.06
2018-10-09T03:28:21.429Z,101191.95
2018-10-09T03:30:51.371Z,101185.38
2018-10-09T03:33:24.687Z,101181.58
2018-10-09T03:35:57.685Z,101174.48
2018-10-09T03:38:28.194Z,101168.75
2018-10-09T03:41:03.879Z,101167.12
2018-10-09T03:43:35.316Z,101158.09
2018-10-09T03:46:07.376Z,101153.14
2018-10-09T03:48:40.241Z,101157.27
2018-10-09T03:51:11.446Z,101156.46
2018-10-09T03:53:45.490Z,101155.89
2018-10-09T03:56:18.341Z,101150.41
2018-10-09T03:58:51.183Z,101160.26
2018-10-09T04:01:21.977Z,101157.52
2018-10-09T04:03:54.458Z,101163.26
2018-10-09T04:06:24.874Z,101152.80
2018-10-09T04:08:58.204Z,101159.41
2018-10-09T04:11:28.104Z,101157.74
2018-10-09T04:14:00.377Z,101161.29
2018-10-09T04:16:33.390Z,101165.91
2018-10-09T04:19:05.491Z,101163.17
2018-10-09T04:21:36.335Z,101163.43
2018-10-09T04:24:07.127Z,101154.08
2018-10-09T04:26:37.005Z,101155.71
2018-10-09T04:29:06.963Z,101148.56
2018-10-09T04:31:37.773Z,101145.57
2018-10-09T04:34:09.182Z,101138.71
2018-10-09T04:36:39.137Z,101141.71
2018-10-09T04:39:12.310Z,101144.45
2018-10-09T04:41:44.696Z,101134.02
2018-10-09T04:44:22.017Z,101146.63
2018-10-09T04:46:53.425Z,101142.77
2018-10-09T04:49:24.551Z,101144.14
2018-10-09T04:51:57.724Z,101136.16
2018-10-09T04:54:29.578Z,101138.11
2018-10-09T04:57:00.050Z,101152.63
2018-10-09T04:59:31.455Z,101150.14
2018-10-09T05:02:02.321Z,101151.51
2018-10-09T05:04:32.187Z,101153.70
2018-10-09T05:07:03.712Z,101160.25
2018-10-09T05:09:33.642Z,101154.25
2018-10-09T05:12:03.591Z,101159.73
2018-10-09T05:14:34.725Z,101156.20
2018-10-09T05:17:04.662Z,101155.36
2018-10-09T05:19:34.608Z,101162.22
2018-10-09T05:22:04.546Z,101162.48
2018-10-09T05:24:34.555Z,101163.85
2018-10-09T05:27:04.663Z,101170.69
2018-10-09T05:29:34.674Z,101162.73
2018-10-09T05:32:04.686Z,101164.37
2018-10-09T05:34:34.655Z,101170.69
2018-10-09T05:37:04.591Z,101171.48
2018-10-09T05:39:34.537Z,101170.37
2018-10-09T05:42:04.542Z,101177.48
2018-10-09T05:44:34.526Z,101183.23
2018-10-09T05:47:04.483Z,101179.39
2018-10-09T05:49:34.425Z,101189.26
2018-10-09T05:52:04.368Z,101193.89
2018-10-09T05:54:34.312Z,101194.14
2018-10-09T05:57:04.247Z,101194.94
2018-10-09T05:59:34.253Z,101201.52
2018-10-09T06:02:04.210Z,101203.95
2018-10-09T06:04:34.152Z,101209.69
2018-10-09T06:07:04.070Z,101209.41
2018-10-09T06:09:33.958Z,101210.17
2018-10-09T06:12:03.915Z,101206.56
2018-10-09T06:14:33.927Z,101208.20
2018-10-09T06:17:03.882Z,101216.37
2018-10-09T06:19:33.800Z,101213.28
2018-10-09T06:22:04.294Z,101210.50
2018-10-09T06:24:34.235Z,101214.27
2018-10-09T06:27:04.159Z,101222.98
2018-10-09T06:29:34.090Z,101218.81
2018-10-09T06:32:04.104Z,101223.95
2018-10-09T06:34:34.083Z,101224.43
2018-10-09T06:37:04.017Z,101222.39
2018-10-09T06:39:33.979Z,101218.75
2018-10-09T06:42:03.973Z,101228.00
2018-10-09T06:44:33.904Z,101226.53
2018-10-09T06:47:03.869Z,101226.44
2018-10-09T06:49:33.827Z,101225.22
2018-10-09T06:52:04.156Z,101231.12
2018-10-09T06:54:34.115Z,101232.09
2018-10-09T06:57:04.055Z,101236.08
2018-10-09T06:59:34.918Z,101238.40
2018-10-09T07:02:04.835Z,101234.94
2018-10-09T07:04:34.803Z,101237.54
2018-10-09T07:07:04.839Z,101239.27
2018-10-09T07:09:34.798Z,101244.30
2018-10-09T07:12:04.830Z,101242.19
2018-10-09T07:14:34.783Z,101251.87
2018-10-09T07:17:04.889Z,101251.89
2018-10-09T07:19:34.977Z,101252.80
2018-10-09T07:22:05.005Z,101255.31
2018-10-09T07:24:34.987Z,101260.83
2018-10-09T07:27:07.636Z,101261.41
2018-10-09T07:29:37.653Z,101264.95
2018-10-09T07:32:07.630Z,101266.36
2018-10-09T07:34:37.569Z,101262.22
2018-10-09T07:37:07.689Z,101265.70
2018-10-09T07:39:37.677Z,101273.95
2018-10-09T07:42:07.656Z,101274.41
2018-10-09T07:44:37.661Z,101273.03
2018-10-09T07:47:07.602Z,101277.13
2018-10-09T07:49:37.597Z,101283.38
2018-10-09T07:52:07.618Z,101284.95
2018-10-09T07:54:37.607Z,101287.30
2018-10-09T07:57:07.739Z,101291.23
2018-10-09T07:59:37.743Z,101285.25
2018-10-09T08:02:07.776Z,101287.13
2018-10-09T08:04:37.797Z,101292.44
2018-10-09T08:07:07.952Z,101293.47
2018-10-09T08:09:37.886Z,101288.53
2018-10-09T08:12:08.032Z,101294.95
2018-10-09T08:14:38.021Z,101293.84
2018-10-09T08:17:08.138Z,101290.89
2018-10-09T08:19:38.062Z,101292.62
2018-10-09T08:22:08.269Z,101296.89
2018-10-09T08:24:38.196Z,101306.47
2018-10-09T08:27:08.244Z,101301.23
2018-10-09T08:29:38.165Z,101303.94
2018-10-09T08:32:08.510Z,101299.52
2018-10-09T08:34:38.626Z,101303.71
2018-10-09T08:37:08.608Z,101309.30
2018-10-09T08:39:38.584Z,101301.03
2018-10-09T08:42:08.637Z,101298.61
2018-10-09T08:44:38.623Z,101303.36
2018-10-09T08:47:08.579Z,101298.09
2018-10-09T08:49:38.422Z,101302.20
2018-10-09T08:52:08.434Z,101305.04
2018-10-09T08:54:38.355Z,101297.70
2018-10-09T08:57:08.454Z,101301.03
2018-10-09T08:59:38.494Z,101307.33
2018-10-09T09:02:08.525Z,101307.84
2018-10-09T09:04:38.481Z,101304.33
2018-10-09T09:07:08.452Z,101304.53
2018-10-09T09:09:38.423Z,101309.64
2018-10-09T09:12:08.443Z,101301.80
2018-10-09T09:14:38.437Z,101307.58
2018-10-09T09:17:08.620Z,101306.00
2018-10-09T09:19:38.548Z,101313.17
2018-10-09T09:22:08.542Z,101311.30
2018-10-09T09:24:38.531Z,101315.83
2018-10-09T09:27:08.550Z,101314.32
2018-10-09T09:29:38.496Z,101312.34
2018-10-09T09:32:08.596Z,101305.95
2018-10-09T09:34:38.594Z,101310.31
2018-10-09T09:37:08.581Z,101306.78
2018-10-09T09:39:38.521Z,101303.25
2018-10-09T09:42:08.613Z,101301.34
2018-10-09T09:44:38.604Z,101304.95
2018-10-09T09:47:08.562Z,101304.65
2018-10-09T09:49:38.510Z,101292.97
2018-10-09T09:52:08.664Z,101289.59
2018-10-09T09:54:38.494Z,101287.59
2018-10-09T09:57:08.468Z,101282.36
2018-10-09T09:59:38.361Z,101280.87
2018-10-09T10:02:08.439Z,101280.78
2018-10-09T10:04:38.431Z,101270.45
2018-10-09T10:07:08.391Z,101274.49
2018-10-09T10:09:38.395Z,101275.75
2018-10-09T10:12:08.336Z,101277.47
2018-10-09T10:14:38.309Z,101271.95
2018-10-09T10:17:08.271Z,101270.61
2018-10-09T10:19:38.454Z,101271.30
2018-10-09T10:22:08.386Z,101267.75
2018-10-09T10:24:38.428Z,101270.58
2018-10-09T10:27:08.427Z,101269.21
2018-10-09T10:29:38.421Z,101271.81
2018-10-09T10:32:08.389Z,101263.44
2018-10-09T10:34:38.331Z,101260.90
2018-10-09T10:37:08.569Z,101262.76
2018-10-09T10:39:38.523Z,101256.94
2018-10-09T10:42:08.608Z,101253.34
2018-10-09T10:44:38.664Z,101253.09
2018-10-09T10:47:08.598Z,101253.47
2018-10-09T10:49:38.550Z,101243.42
2018-10-09T10:52:08.636Z,101239.61
2018-10-09T10:54:38.608Z,101246.55
2018-10-09T10:57:08.557Z,101244.09
2018-10-09T10:59:38.498Z,101245.22
2018-10-09T11:02:08.791Z,101252.36
2018-10-09T11:04:38.799Z,101247.45
2018-10-09T11:07:08.832Z,101252.80
2018-10-09T11:09:38.848Z,101242.52
2018-10-09T11:12:08.842Z,101243.81
2018-10-09T11:14:38.884Z,101241.48
2018-10-09T11:17:08.854Z,101243.14
2018-10-09T11:19:38.788Z,101231.77
2018-10-09T11:22:08.945Z,101230.00
2018-10-09T11:24:40.297Z,101231.06
2018-10-09T11:27:15.392Z,101230.48
2018-10-09T11:29:49.705Z,101223.89
2018-10-09T11:32:20.352Z,101224.50
2018-10-09T11:34:50.875Z,101220.50
2018-10-09T11:37:22.834Z,101219.52
2018-10-09T11:39:57.004Z,101220.91
2018-10-09T11:42:26.966Z,101211.06
2018-10-09T11:44:58.257Z,101205.66
2018-10-09T11:47:28.904Z,101200.21
2018-10-09T11:50:01.559Z,101197.16
2018-10-09T11:52:32.868Z,101193.54
2018-10-09T11:55:02.876Z,101193.16
2018-10-09T11:57:33.158Z,101183.59
2018-10-09T12:00:06.613Z,101184.62
2018-10-09T12:02:40.951Z,101179.63
2018-10-09T12:05:16.041Z,101175.45
2018-10-09T12:07:48.439Z,101170.92
2018-10-09T12:10:19.933Z,101161.95
2018-10-09T12:12:53.167Z,101165.36
2018-10-09T12:15:25.321Z,101156.17
2018-10-09T12:17:59.741Z,101160.41
2018-10-09T12:20:29.755Z,101159.44
2018-10-09T12:23:02.468Z,101162.85
2018-10-09T12:25:33.758Z,101152.61
2018-10-09T12:28:06.149Z,101155.23
2018-10-09T12:30:38.597Z,101156.64
2018-10-09T12:33:08.768Z,101150.62
2018-10-09T12:35:40.129Z,101142.22
2018-10-09T12:38:11.982Z,101131.41
2018-10-09T12:40:43.318Z,101136.22
2018-10-09T12:43:14.582Z,101133.25
2018-10-09T12:45:48.139Z,101140.27
2018-10-09T12:48:18.132Z,101134.25
2018-10-09T12:50:48.179Z,101129.87
2018-10-09T12:53:19.526Z,101128.06
2018-10-09T12:55:53.120Z,101126.05
2018-10-09T12:58:25.703Z,101124.23
2018-10-09T13:00:57.458Z,101114.38
2018-10-09T13:03:30.517Z,101118.19
2018-10-09T13:06:01.496Z,101115.59
2018-10-09T13:08:32.799Z,101112.98
2018-10-09T13:11:04.404Z,101115.59
2018-10-09T13:13:36.329Z,101112.75
2018-10-09T13:16:09.223Z,101114.75
2018-10-09T13:18:39.177Z,101114.95
2018-10-09T13:21:12.612Z,101109.53
2018-10-09T13:23:43.688Z,101112.73
2018-10-09T13:26:14.402Z,101110.52
2018-10-09T13:28:45.580Z,101103.13
2018-10-09T13:31:15.621Z,101104.72
2018-10-09T13:33:46.146Z,101106.32
2018-10-09T13:36:18.552Z,101112.13
2018-10-09T13:38:50.838Z,101108.08
2018-10-09T13:41:22.748Z,101105.63
2018-10-09T13:43:53.775Z,101101.17
2018-10-09T13:46:25.249Z,101095.52
2018-10-09T13:48:57.305Z,101095.90
2018-10-09T13:51:28.910Z,101085.61
2018-10-09T13:54:03.193Z,101087.41
2018-10-09T13:56:39.579Z,101088.18
2018-10-09T13:59:10.125Z,101087.32
2018-10-09T14:01:40.142Z,101096.14
2018-10-09T14:04:10.143Z,101091.48
2018-10-09T14:06:42.646Z,101096.25
2018-10-09T14:09:13.070Z,101090.55
2018-10-09T14:11:43.229Z,101085.92
2018-10-09T14:14:13.212Z,101084.07
2018-10-09T14:16:43.868Z,101082.03
2018-10-09T14:19:13.907Z,101084.59
2018-10-09T14:21:44.681Z,101079.34
2018-10-09T14:24:14.910Z,101080.94
2018-10-09T14:26:46.031Z,101069.67
2018-10-09T14:29:18.873Z,101079.76
2018-10-09T14:31:50.071Z,101076.11
2018-10-09T14:34:21.747Z,101064.83
2018-10-09T14:36:52.316Z,101071.45
2018-10-09T14:39:23.102Z,101072.27
2018-10-09T14:41:53.615Z,101071.45
2018-10-09T14:44:23.644Z,101072.47
2018-10-09T14:46:55.655Z,101069.67
2018-10-09T14:49:25.607Z,101071.72
2018-10-09T14:51:58.645Z,101066.53
2018-10-09T14:54:28.679Z,101073.82
2018-10-09T14:56:58.673Z,101070.04
2018-10-09T14:59:28.685Z,101069.23
2018-10-09T15:01:58.691Z,101070.50
2018-10-09T15:04:28.707Z,101073.95
2018-10-09T15:06:58.692Z,101076.19
2018-10-09T15:09:28.724Z,101072.02
2018-10-09T15:12:02.142Z,101071.88
2018-10-09T15:14:32.171Z,101075.95
2018-10-09T15:17:05.425Z,101079.17
2018-10-09T15:19:35.799Z,101079.80
2018-10-09T15:22:07.152Z,101075.03
2018-10-09T15:24:39.388Z,101079.28
2018-10-09T15:27:09.386Z,101080.33
2018-10-09T15:29:42.547Z,101084.38
2018-10-09T15:32:16.141Z,101084.02
2018-10-09T15:34:47.583Z,101077.23
2018-10-09T15:37:18.440Z,101079.21
2018-10-09T15:39:51.588Z,101073.23
2018-10-09T15:42:21.534Z,101083.08
2018-10-09T15:44:56.890Z,101076.05
2018-10-09T15:47:29.109Z,101076.86
2018-10-09T15:50:00.647Z,101081.68
2018-10-09T15:52:31.364Z,101083.25
2018-10-09T15:55:01.344Z,101078.03
2018-10-09T15:57:31.597Z,101081.03
2018-10-09T16:00:02.456Z,101077.59
2018-10-09T16:02:32.483Z,101074.14
2018-10-09T16:05:02.486Z,101079.89
2018-10-09T16:07:32.498Z,101077.63
2018-10-09T16:10:05.001Z,101081.57
2018-10-09T16:12:35.354Z,101076.69
2018-10-09T16:15:05.345Z,101079.42
2018-10-09T16:17:35.347Z,101089.36
2018-10-09T16:20:06.748Z,101087.23
2018-10-09T16:22:36.810Z,101080.92
2018-10-09T16:25:06.816Z,101087.45
2018-10-09T16:27:36.842Z,101085.55
2018-10-09T16:30:06.932Z,101085.84
2018-10-09T16:32:37.014Z,101079.93
2018-10-09T16:35:07.046Z,101081.95
2018-10-09T16:37:37.039Z,101087.44
2018-10-09T16:40:07.105Z,101091.33
2018-10-09T16:42:37.053Z,101084.61
2018-10-09T16:45:07.095Z,101094.42
2018-10-09T16:47:37.094Z,101093.06
2018-10-09T16:50:08.464Z,101093.32
2018-10-09T16:52:38.499Z,101093.32
2018-10-09T16:55:10.414Z,101092.74
2018-10-09T16:57:40.560Z,101102.14
2018-10-09T17:00:12.868Z,101099.58
2018-10-09T17:02:44.414Z,101097.80
2018-10-09T17:05:17.923Z,101097.44
2018-10-09T17:07:56.545Z,101108.20
2018-10-09T17:10:28.224Z,101102.19
2018-10-09T17:13:02.728Z,101107.36
2018-10-09T17:15:32.751Z,101108.37
2018-10-09T17:18:03.547Z,101104.80
2018-10-09T17:20:35.586Z,101111.92
2018-10-09T17:23:06.332Z,101109.53
2018-10-09T17:25:37.049Z,101114.53
2018-10-09T17:28:08.535Z,101113.95
2018-10-09T17:30:38.585Z,101122.70
2018-10-09T17:33:12.274Z,101119.30
2018-10-09T17:35:46.074Z,101127.04
2018-10-09T17:38:20.407Z,101128.06
2018-10-09T17:40:51.399Z,101121.45
2018-10-09T17:43:21.385Z,101120.48
2018-10-09T17:45:51.408Z,101124.66
2018-10-09T17:48:21.711Z,101124.84
2018-10-09T17:50:51.654Z,101127.82
2018-10-09T17:53:21.799Z,101129.77
2018-10-09T17:55:52.763Z,101132.98
2018-10-09T17:58:23.259Z,101135.69
2018-10-09T18:00:53.228Z,101145.03
2018-10-09T18:03:23.247Z,101148.80
2018-10-09T18:05:54.637Z,101138.66
2018-10-09T18:08:25.229Z,101143.22
2018-10-09T18:10:55.160Z,101148.83
2018-10-09T18:13:25.139Z,101152.59
2018-10-09T18:15:55.175Z,101149.02
2018-10-09T18:18:25.219Z,101149.06
2018-10-09T18:20:55.208Z,101148.87
2018-10-09T18:23:25.287Z,101148.67
2018-10-09T18:25:55.373Z,101144.53
2018-10-09T18:28:25.438Z,101148.73
2018-10-09T18:30:55.502Z,101157.07
2018-10-09T18:33:25.663Z,101152.67
2018-10-09T18:35:55.628Z,101162.64
2018-10-09T18:38:25.688Z,101155.72
2018-10-09T18:40:55.766Z,101160.14
2018-10-09T18:43:25.723Z,101153.22
2018-10-09T18:45:55.822Z,101159.02
2018-10-09T18:48:25.839Z,101154.28
2018-10-09T18:50:55.848Z,101155.80
2018-10-09T18:53:25.833Z,101156.28
2018-10-09T18:55:55.921Z,101156.75
2018-10-09T18:58:25.983Z,101156.03
2018-10-09T19:00:55.964Z,101156.73
2018-10-09T19:03:25.971Z,101161.59
2018-10-09T19:05:56.023Z,101162.07
2018-10-09T19:08:26.076Z,101165.55
2018-10-09T19:10:56.250Z,101168.23
2018-10-09T19:13:26.239Z,101161.16
2018-10-09T19:15:56.296Z,101167.18
2018-10-09T19:18:26.374Z,101162.09
2018-10-09T19:20:56.311Z,101166.73
2018-10-09T19:23:26.350Z,101160.48
2018-10-09T19:25:56.289Z,101166.50
2018-10-09T19:28:26.396Z,101166.97
2018-10-09T19:30:56.409Z,101164.88
2018-10-09T19:33:26.483Z,101159.80
2018-10-09T19:35:56.465Z,101163.83
2018-10-09T19:38:26.561Z,101169.02
2018-10-09T19:40:57.696Z,101174.66
2018-10-09T19:43:28.063Z,101172.34
2018-10-09T19:45:58.498Z,101175.81
2018-10-09T19:48:28.734Z,101171.52
2018-10-09T19:50:58.930Z,101178.12
2018-10-09T19:53:28.935Z,101174.05
2018-10-09T19:55:58.935Z,101169.43
2018-10-09T19:58:28.924Z,101169.56
2018-10-09T20:00:59.008Z,101172.42
2018-10-09T20:03:29.005Z,101171.38
2018-10-09T20:05:59.976Z,101177.28
2018-10-09T20:08:30.087Z,101177.97
2018-10-09T20:11:00.222Z,101171.72
2018-10-09T20:13:30.203Z,101179.80
2018-10-09T20:16:00.178Z,101177.95
2018-10-09T20:18:30.218Z,101180.26
2018-10-09T20:21:00.155Z,101183.36
2018-10-09T20:23:30.553Z,101170.42
2018-10-09T20:26:01.025Z,101176.88
2018-10-09T20:28:30.997Z,101178.27
2018-10-09T20:31:01.408Z,101182.20
2018-10-09T20:33:31.506Z,101178.39
2018-10-09T20:36:01.483Z,101177.92
2018-10-09T20:38:32.628Z,101180.47
2018-10-09T20:41:02.577Z,101173.63
2018-10-09T20:43:33.302Z,101175.34
2018-10-09T20:46:03.905Z,101177.88
2018-10-09T20:48:33.891Z,101181.01
2018-10-09T20:51:04.528Z,101183.88
2018-10-09T20:53:36.561Z,101184.79
2018-10-09T20:56:06.507Z,101178.78
2018-10-09T20:58:36.514Z,101181.91
2018-10-09T21:01:06.472Z,101180.85
2018-10-09T21:03:39.447Z,101181.77
2018-10-09T21:06:09.508Z,101177.38
2018-10-09T21:08:40.829Z,101172.19
2018-10-09T21:11:10.893Z,101178.06
2018-10-09T21:13:41.518Z,101174.27
2018-10-09T21:16:11.495Z,101177.59
2018-10-09T21:18:42.147Z,101181.52
2018-10-09T21:21:12.232Z,101173.56
2018-10-09T21:23:42.390Z,101179.42
2018-10-09T21:26:12.358Z,101178.04
2018-10-09T21:28:42.362Z,101177.24
2018-10-09T21:31:12.343Z,101177.80
2018-10-09T21:33:42.351Z,101179.78
2018-10-09T21:36:12.364Z,101177.34
2018-10-09T21:38:43.732Z,101179.63
2018-10-09T21:41:13.725Z,101178.58
2018-10-09T21:43:43.705Z,101180.55
2018-10-09T21:46:14.259Z,101172.01
2018-10-09T21:48:44.297Z,101180.31
2018-10-09T21:51:14.291Z,101184.23
2018-10-09T21:53:44.268Z,101179.84
2018-10-09T21:56:14.208Z,101182.38
2018-10-09T21:58:44.199Z,101182.14
2018-10-09T22:01:14.182Z,101175.31
2018-10-09T22:03:45.683Z,101179.59
2018-10-09T22:06:16.225Z,101174.14
2018-10-09T22:08:47.997Z,101181.73
2018-10-09T22:11:23.270Z,101180.23
2018-10-09T22:13:53.897Z,101182.86
2018-10-09T22:16:24.053Z,101180.18
2018-10-09T22:18:56.716Z,101184.74
2018-10-09T22:21:28.061Z,101179.87
2018-10-09T22:23:59.605Z,101178.61
2018-10-09T22:26:29.567Z,101179.05
2018-10-09T22:29:00.771Z,101170.59
2018-10-09T22:31:30.738Z,101170.36
2018-10-09T22:34:03.503Z,101176.58
2018-10-09T22:36:36.441Z,101175.86
2018-10-09T22:39:10.261Z,101172.86
2018-10-09T22:41:49.637Z,101168.80
2018-10-09T22:44:21.633Z,101166.14
2018-10-09T22:47:04.923Z,101168.67
2018-10-09T22:49:38.837Z,101170.97
2018-10-09T22:52:13.572Z,101163.34
2018-10-09T22:54:47.537Z,101164.25
2018-10-09T22:57:19.571Z,101165.16
2018-10-09T22:59:49.526Z,101162.47
2018-10-09T23:02:20.247Z,101162.00
2018-10-09T23:04:50.179Z,101162.59
2018-10-09T23:07:20.105Z,101156.23
2018-10-09T23:09:50.079Z,101157.61
2018-10-09T23:12:20.074Z,101155.44
2018-10-09T23:14:50.739Z,101152.67
2018-10-09T23:17:20.709Z,101158.20
2018-10-09T23:19:51.336Z,101160.97
2018-10-09T23:22:24.016Z,101159.34
2018-10-09T23:24:56.871Z,101160.97
2018-10-09T23:27:28.934Z,101162.11
2018-10-09T23:30:00.390Z,101163.73
2018-10-09T23:32:31.334Z,101164.29
2018-10-09T23:35:01.314Z,101167.41
2018-10-09T23:37:31.244Z,101172.35
2018-10-09T23:40:01.907Z,101164.05
2018-10-09T23:42:32.449Z,101164.88
2018-10-09T23:45:02.388Z,101153.81
2018-10-09T23:47:32.336Z,101150.81
2018-10-09T23:50:02.279Z,101156.66
2018-10-09T23:52:32.290Z,101155.87
2018-10-09T23:55:03.127Z,101147.33
2018-10-09T23:57:34.136Z,101150.42
